Time;durP1;ratioP1;P1;durP2;ratioP2;P2;SDS_P1;SDS_P2;PMS_P1;PMS_P2;Temp;Humidity;BMP_temperature;BMP_pressure;BME280_temperature;BME280_humidity;BME280_pressure;Samples;Min_cycle;Max_cycle;Signal;HPM_P1;HPM_P2
2023/12/20 00:01:22;;;;;;;10.00;2.40;;;5.60;1.00;;;;;;5053691;28;20191;-74
2023/12/20 00:03:48;;;;;;;11.60;3.37;;;5.60;1.00;;;;;;5055471;28;20170;-71
2023/12/20 00:06:13;;;;;;;7.83;3.00;;;5.60;1.00;;;;;;5053994;28;20405;-71
2023/12/20 00:08:39;;;;;;;14.37;3.60;;;5.60;1.00;;;;;;5055344;28;20258;-72
2023/12/20 00:11:05;;;;;;;7.27;4.50;;;5.50;1.00;;;;;;5055063;28;20529;-70
2023/12/20 00:13:31;;;;;;;4.80;2.70;;;5.60;1.00;;;;;;5053823;28;20175;-70
2023/12/20 00:15:56;;;;;;;10.73;3.17;;;5.60;1.00;;;;;;5053815;28;20408;-73
2023/12/20 00:18:23;;;;;;;10.43;3.40;;;5.60;1.00;;;;;;5053391;28;20198;-71
2023/12/20 00:20:48;;;;;;;11.70;3.80;;;5.60;1.00;;;;;;5054450;28;20201;-70
2023/12/20 00:23:14;;;;;;;11.77;3.73;;;5.50;1.00;;;;;;5062730;28;20424;-69
2023/12/20 00:25:40;;;;;;;9.70;2.70;;;5.50;1.00;;;;;;5073000;28;20316;-70
2023/12/20 00:28:06;;;;;;;11.83;3.40;;;5.50;1.00;;;;;;5054939;28;20464;-69
2023/12/20 00:30:32;;;;;;;17.53;3.60;;;5.60;1.00;;;;;;5054796;28;20509;-73
2023/12/20 00:32:58;;;;;;;8.03;3.47;;;5.60;1.00;;;;;;5054406;28;20405;-71
2023/12/20 00:35:24;;;;;;;11.70;3.03;;;5.60;1.00;;;;;;5053739;28;20175;-72
2023/12/20 00:37:49;;;;;;;10.53;3.20;;;5.60;1.00;;;;;;5054151;28;20278;-71
2023/12/20 00:40:15;;;;;;;8.93;3.60;;;5.70;1.00;;;;;;5054583;28;20560;-69
2023/12/20 00:42:41;;;;;;;16.20;4.97;;;5.70;1.00;;;;;;5065661;28;20857;-72
2023/12/20 00:45:07;;;;;;;11.93;3.37;;;5.70;1.00;;;;;;5072693;28;20173;-70
2023/12/20 00:47:33;;;;;;;8.30;3.70;;;5.80;1.00;;;;;;5054045;28;20426;-71
2023/12/20 00:49:58;;;;;;;13.00;3.40;;;5.80;1.00;;;;;;5054546;28;20413;-70
2023/12/20 00:52:25;;;;;;;11.77;4.30;;;5.80;1.00;;;;;;5069665;28;20194;-73
2023/12/20 00:54:51;;;;;;;13.07;2.83;;;5.80;1.00;;;;;;5072740;28;20158;-70
2023/12/20 00:57:16;;;;;;;10.13;3.00;;;5.70;1.00;;;;;;5057760;28;20438;-72
2023/12/20 00:59:42;;;;;;;28.00;3.60;;;5.80;1.00;;;;;;5053121;28;20449;-72
2023/12/20 01:02:08;;;;;;;8.83;2.67;;;5.70;1.00;;;;;;5053981;28;20250;-69
2023/12/20 01:04:34;;;;;;;10.80;3.77;;;5.70;1.00;;;;;;5053185;28;20566;-69
2023/12/20 01:07:00;;;;;;;7.30;2.97;;;5.70;1.00;;;;;;5053062;28;20397;-71
2023/12/20 01:09:28;;;;;;;11.53;2.80;;;5.60;1.00;;;;;;5062775;28;20228;-72
2023/12/20 01:11:54;;;;;;;20.10;3.50;;;5.60;1.00;;;;;;5073933;28;20642;-72
2023/12/20 01:14:20;;;;;;;13.20;3.67;;;5.60;1.00;;;;;;5068265;28;20456;-72
2023/12/20 01:16:45;;;;;;;12.90;3.30;;;5.50;1.00;;;;;;5053072;28;20189;-72
2023/12/20 01:19:13;;;;;;;7.60;3.10;;;5.60;1.00;;;;;;5053850;28;20553;-73
2023/12/20 01:21:39;;;;;;;9.30;3.60;;;5.60;1.00;;;;;;5053481;28;20187;-69
2023/12/20 01:24:04;;;;;;;23.90;4.40;;;5.60;1.00;;;;;;5068842;28;20969;-71
2023/12/20 01:26:30;;;;;;;15.30;3.47;;;5.70;1.00;;;;;;5063618;28;20452;-70
2023/12/20 01:28:56;;;;;;;16.13;4.20;;;5.60;1.00;;;;;;5053635;28;20567;-71
2023/12/20 01:31:21;;;;;;;10.33;3.50;;;5.70;1.00;;;;;;5053103;28;20320;-72
2023/12/20 01:33:47;;;;;;;10.10;3.43;;;5.70;1.00;;;;;;5051872;28;20182;-72
2023/12/20 01:36:13;;;;;;;14.73;3.57;;;5.80;1.00;;;;;;5052499;28;20210;-72
2023/12/20 01:38:39;;;;;;;12.20;4.53;;;5.70;1.00;;;;;;5053617;28;20194;-71
2023/12/20 01:41:04;;;;;;;21.73;3.43;;;5.80;1.00;;;;;;5052289;28;20290;-72
2023/12/20 01:43:30;;;;;;;10.33;3.73;;;5.80;1.00;;;;;;5052315;28;20909;-69
2023/12/20 01:45:57;;;;;;;19.60;3.23;;;5.80;1.00;;;;;;5052229;28;20175;-72
2023/12/20 01:48:24;;;;;;;16.43;3.30;;;5.90;1.00;;;;;;5052343;28;20504;-70
2023/12/20 01:50:50;;;;;;;9.53;2.73;;;5.90;1.00;;;;;;5051930;28;20978;-70
2023/12/20 01:53:18;;;;;;;11.20;2.60;;;5.90;1.00;;;;;;5053020;28;20989;-70
2023/12/20 01:55:44;;;;;;;24.13;3.83;;;5.90;1.00;;;;;;5051159;28;20432;-71
2023/12/20 01:58:12;;;;;;;11.60;3.50;;;5.90;1.00;;;;;;5053668;28;20433;-70
2023/12/20 02:00:38;;;;;;;15.20;4.43;;;5.90;1.00;;;;;;5064356;28;20882;-69
2023/12/20 02:03:04;;;;;;;11.90;3.80;;;6.00;1.00;;;;;;5052386;28;20479;-69
2023/12/20 02:05:31;;;;;;;8.17;4.07;;;6.00;1.00;;;;;;5052032;28;20401;-68
2023/12/20 02:07:57;;;;;;;6.57;3.10;;;5.90;1.00;;;;;;5052853;28;20517;-69
2023/12/20 02:10:24;;;;;;;11.87;4.40;;;5.90;1.00;;;;;;5052645;28;20498;-71
2023/12/20 02:12:49;;;;;;;8.60;3.27;;;5.90;1.00;;;;;;5052831;28;20418;-70
2023/12/20 02:15:15;;;;;;;12.77;3.10;;;5.90;1.00;;;;;;5052168;28;20770;-71
2023/12/20 02:17:41;;;;;;;14.43;3.27;;;6.00;1.00;;;;;;5052612;28;20230;-71
2023/12/20 02:20:07;;;;;;;13.57;3.80;;;6.00;1.00;;;;;;5052856;28;20277;-71
2023/12/20 02:22:33;;;;;;;11.90;3.30;;;6.00;1.00;;;;;;5053177;28;20628;-72
2023/12/20 02:24:58;;;;;;;8.17;3.00;;;6.00;1.00;;;;;;5051653;28;20521;-70
2023/12/20 02:27:24;;;;;;;6.77;3.20;;;6.00;1.00;;;;;;5063553;28;20575;-71
2023/12/20 02:29:50;;;;;;;8.50;2.77;;;6.00;1.00;;;;;;5063829;28;20175;-71
2023/12/20 02:32:17;;;;;;;10.17;3.20;;;6.00;1.00;;;;;;5053985;28;20182;-71
2023/12/20 02:34:43;;;;;;;7.70;3.00;;;6.00;1.00;;;;;;5052016;28;20412;-72
2023/12/20 02:37:09;;;;;;;12.63;3.17;;;6.10;1.00;;;;;;5052696;28;20430;-70
2023/12/20 02:39:34;;;;;;;5.57;2.80;;;6.10;1.00;;;;;;5052421;28;20191;-70
2023/12/20 02:42:00;;;;;;;13.73;3.77;;;6.10;1.00;;;;;;5051616;28;20167;-71
2023/12/20 02:44:26;;;;;;;7.10;3.27;;;6.00;1.00;;;;;;5052540;28;20221;-73
2023/12/20 02:46:51;;;;;;;7.30;3.00;;;6.00;1.00;;;;;;5050487;28;20167;-72
2023/12/20 02:49:18;;;;;;;3.07;2.53;;;6.00;1.00;;;;;;5052090;28;20163;-70
2023/12/20 02:51:43;;;;;;;16.50;3.30;;;6.00;1.00;;;;;;5051508;28;20543;-69
2023/12/20 02:54:09;;;;;;;5.27;2.53;;;6.00;1.00;;;;;;5051567;28;20478;-69
2023/12/20 02:56:35;;;;;;;5.20;2.50;;;6.00;1.00;;;;;;5051976;28;20170;-71
2023/12/20 02:59:01;;;;;;;3.87;2.30;;;6.10;1.00;;;;;;5052049;28;20191;-69
2023/12/20 03:01:27;;;;;;;16.83;3.63;;;6.20;1.00;;;;;;5052271;28;20457;-73
2023/12/20 03:03:53;;;;;;;13.93;3.50;;;6.10;1.00;;;;;;5052116;28;20416;-69
2023/12/20 03:06:19;;;;;;;3.80;2.53;;;6.10;1.00;;;;;;5050375;28;20418;-70
2023/12/20 03:08:45;;;;;;;4.40;2.60;;;6.00;1.00;;;;;;5060567;28;20202;-69
2023/12/20 03:11:11;;;;;;;9.50;3.40;;;6.00;1.00;;;;;;5056107;28;20500;-72
2023/12/20 03:13:37;;;;;;;11.87;2.97;;;6.00;1.00;;;;;;5062021;28;20442;-69
2023/12/20 03:16:12;;;;;;;7.27;4.10;;;6.00;1.00;;;;;;5056391;28;20908;-71
2023/12/20 03:18:38;;;;;;;8.13;3.10;;;6.10;1.00;;;;;;5051745;28;20210;-71
2023/12/20 03:21:06;;;;;;;10.67;3.03;;;6.00;1.00;;;;;;5051309;28;20457;-71
2023/12/20 03:23:33;;;;;;;13.63;2.97;;;6.00;1.00;;;;;;5059145;28;20421;-69
2023/12/20 03:25:59;;;;;;;7.30;3.17;;;6.10;1.00;;;;;;5051180;28;20421;-70
2023/12/20 03:28:26;;;;;;;6.90;3.40;;;6.10;1.00;;;;;;5052296;28;20810;-71
2023/12/20 03:30:52;;;;;;;7.43;3.43;;;6.10;1.00;;;;;;5054586;28;20413;-72
2023/12/20 03:33:18;;;;;;;9.27;3.50;;;6.20;1.00;;;;;;5053927;28;20829;-70
2023/12/20 03:35:43;;;;;;;11.33;4.20;;;6.20;1.00;;;;;;5035419;28;20189;-71
2023/12/20 03:38:09;;;;;;;6.13;3.30;;;6.20;1.00;;;;;;5035844;28;20195;-71
2023/12/20 03:40:35;;;;;;;7.40;4.00;;;6.20;1.00;;;;;;5044574;28;20202;-69
2023/12/20 03:43:01;;;;;;;7.07;3.57;;;6.30;1.00;;;;;;5054190;28;20504;-69
2023/12/20 03:45:26;;;;;;;7.73;3.00;;;6.30;1.00;;;;;;5053626;28;20175;-71
2023/12/20 03:47:56;;;;;;;12.73;3.80;;;6.30;1.00;;;;;;5067969;28;20437;-69
2023/12/20 03:50:25;;;;;;;9.33;3.07;;;6.30;1.00;;;;;;5055601;28;20167;-70
2023/12/20 03:52:52;;;;;;;7.80;3.00;;;6.30;1.00;;;;;;5054815;28;20441;-70
2023/12/20 03:55:18;;;;;;;15.80;3.77;;;6.30;1.00;;;;;;5054215;28;20782;-71
2023/12/20 03:57:43;;;;;;;14.67;3.07;;;6.20;1.00;;;;;;5055589;28;20429;-70
2023/12/20 04:00:10;;;;;;;8.03;2.50;;;6.20;1.00;;;;;;5053919;28;20543;-70
2023/12/20 04:02:38;;;;;;;9.80;3.30;;;6.20;1.00;;;;;;5056285;28;20182;-72
2023/12/20 04:05:04;;;;;;;10.73;3.03;;;6.20;1.00;;;;;;5054055;28;20413;-71
2023/12/20 04:07:30;;;;;;;10.93;3.60;;;6.20;1.00;;;;;;5055275;28;20448;-73
2023/12/20 04:09:56;;;;;;;7.67;2.80;;;6.10;1.00;;;;;;5053987;28;20894;-70
2023/12/20 04:12:22;;;;;;;3.30;2.43;;;6.10;1.00;;;;;;5055026;28;21199;-71
2023/12/20 04:14:47;;;;;;;13.17;3.30;;;6.10;1.00;;;;;;5052987;28;20179;-69
2023/12/20 04:17:15;;;;;;;9.60;2.57;;;6.10;1.00;;;;;;5054954;28;20218;-72
2023/12/20 04:19:41;;;;;;;6.43;2.93;;;6.10;1.00;;;;;;5054771;28;20205;-70
2023/12/20 04:22:07;;;;;;;9.70;3.60;;;6.20;1.00;;;;;;5052623;28;20437;-71
2023/12/20 04:24:33;;;;;;;15.83;4.30;;;6.10;1.00;;;;;;5052864;28;20797;-68
2023/12/20 04:26:58;;;;;;;7.40;3.17;;;6.10;1.00;;;;;;5054843;28;20527;-71
2023/12/20 04:29:24;;;;;;;8.87;3.63;;;6.10;1.00;;;;;;5054681;28;20167;-71
2023/12/20 04:31:51;;;;;;;20.40;4.20;;;6.10;1.00;;;;;;5053455;28;20271;-70
2023/12/20 04:34:17;;;;;;;6.43;2.53;;;6.10;1.00;;;;;;5054137;28;20214;-70
2023/12/20 04:36:43;;;;;;;4.43;2.13;;;6.00;1.00;;;;;;5052759;28;20946;-72
2023/12/20 04:39:09;;;;;;;8.13;2.83;;;5.90;1.00;;;;;;5053222;28;20523;-71
2023/12/20 04:41:35;;;;;;;3.60;2.50;;;5.90;1.00;;;;;;5053340;28;20458;-70
2023/12/20 04:44:00;;;;;;;3.33;2.17;;;5.90;1.00;;;;;;5054140;28;20901;-71
2023/12/20 04:46:26;;;;;;;10.03;3.00;;;5.90;1.00;;;;;;5053567;28;20176;-70
2023/12/20 04:48:52;;;;;;;3.70;2.47;;;5.80;1.00;;;;;;5053549;28;20658;-70
2023/12/20 04:51:18;;;;;;;3.10;2.20;;;5.80;1.00;;;;;;5054635;28;20508;-69
2023/12/20 04:53:43;;;;;;;5.83;2.70;;;5.90;1.00;;;;;;5053972;28;20266;-70
2023/12/20 04:56:09;;;;;;;3.60;2.23;;;5.90;1.00;;;;;;5050448;28;20190;-72
2023/12/20 04:58:35;;;;;;;11.00;2.87;;;6.00;1.00;;;;;;5055770;28;20205;-71
2023/12/20 05:01:01;;;;;;;10.20;3.33;;;6.00;1.00;;;;;;5054027;28;20199;-70
2023/12/20 05:03:27;;;;;;;6.90;3.30;;;6.00;1.00;;;;;;5053678;28;20624;-72
2023/12/20 05:05:53;;;;;;;16.83;3.60;;;6.10;1.00;;;;;;5055125;28;20428;-70
2023/12/20 05:08:18;;;;;;;11.53;3.43;;;6.10;1.00;;;;;;5057999;28;20280;-70
2023/12/20 05:10:45;;;;;;;14.07;4.20;;;6.10;1.00;;;;;;5053766;28;20156;-72
2023/12/20 05:13:10;;;;;;;9.53;2.83;;;6.20;1.00;;;;;;5054066;28;20412;-71
2023/12/20 05:15:36;;;;;;;8.03;2.90;;;6.20;1.00;;;;;;5053135;28;20171;-68
2023/12/20 05:18:02;;;;;;;11.50;3.30;;;6.20;1.00;;;;;;5053520;28;20226;-69
2023/12/20 05:20:28;;;;;;;10.07;3.47;;;6.30;1.00;;;;;;5053492;28;20678;-70
2023/12/20 05:22:53;;;;;;;9.80;3.87;;;6.20;1.00;;;;;;5053670;28;20170;-71
2023/12/20 05:25:19;;;;;;;19.60;5.13;;;6.20;1.00;;;;;;5051892;28;20560;-69
2023/12/20 05:27:45;;;;;;;8.43;3.90;;;6.20;1.00;;;;;;5053614;28;20203;-72
2023/12/20 05:30:11;;;;;;;16.73;4.03;;;6.20;1.00;;;;;;5052177;28;20650;-72
2023/12/20 05:32:36;;;;;;;13.83;4.00;;;6.30;1.00;;;;;;5043815;28;20183;-71
2023/12/20 05:35:03;;;;;;;8.60;3.50;;;6.30;1.00;;;;;;5047485;28;20479;-70
2023/12/20 05:37:28;;;;;;;7.80;2.93;;;6.30;1.00;;;;;;5055176;28;20229;-68
2023/12/20 05:39:54;;;;;;;6.93;3.30;;;6.20;1.00;;;;;;5072323;28;20507;-70
2023/12/20 05:42:20;;;;;;;8.63;3.10;;;6.10;1.00;;;;;;5073466;28;20170;-69
2023/12/20 05:44:45;;;;;;;6.50;3.33;;;6.10;1.00;;;;;;5065486;28;20190;-72
2023/12/20 05:47:11;;;;;;;14.03;3.30;;;6.00;1.00;;;;;;5052996;28;20222;-69
2023/12/20 05:49:37;;;;;;;14.80;3.23;;;5.90;1.00;;;;;;5053379;28;20177;-70
2023/12/20 05:52:02;;;;;;;16.63;3.90;;;5.90;1.00;;;;;;5053265;28;20186;-72
2023/12/20 05:54:28;;;;;;;6.57;2.90;;;5.80;1.00;;;;;;5052923;28;20706;-68
2023/12/20 05:56:54;;;;;;;15.80;5.50;;;5.80;1.00;;;;;;5051908;28;20405;-70
2023/12/20 05:59:20;;;;;;;6.00;4.00;;;5.80;1.00;;;;;;5053313;28;20175;-69
2023/12/20 06:01:45;;;;;;;12.20;4.90;;;5.80;1.00;;;;;;5063624;28;20190;-68
2023/12/20 06:04:11;;;;;;;13.67;6.30;;;5.90;1.00;;;;;;5061199;28;20178;-70
2023/12/20 06:06:43;;;;;;;10.90;3.47;;;5.90;1.00;;;;;;5050987;28;20182;-72
2023/12/20 06:09:09;;;;;;;16.37;3.80;;;5.90;1.00;;;;;;5051851;28;20194;-69
2023/12/20 06:11:35;;;;;;;6.47;3.87;;;5.90;1.00;;;;;;5052991;28;20384;-70
2023/12/20 06:14:00;;;;;;;14.40;4.20;;;6.00;1.00;;;;;;5052971;28;20401;-70
2023/12/20 06:16:26;;;;;;;11.93;5.50;;;6.00;1.00;;;;;;5059619;28;20270;-68
2023/12/20 06:18:52;;;;;;;7.83;4.23;;;6.10;1.00;;;;;;5058528;28;20203;-69
2023/12/20 06:21:17;;;;;;;13.33;4.57;;;6.10;1.00;;;;;;5051410;28;20281;-69
2023/12/20 06:23:43;;;;;;;13.03;4.80;;;6.10;1.00;;;;;;5067480;28;20278;-69
2023/12/20 06:26:09;;;;;;;18.47;3.83;;;6.10;1.00;;;;;;5071919;28;20438;-71
2023/12/20 06:28:34;;;;;;;11.73;4.50;;;6.10;1.00;;;;;;5061046;28;20277;-70
2023/12/20 06:31:00;;;;;;;16.00;4.40;;;6.20;1.00;;;;;;5052435;28;20183;-70
2023/12/20 06:33:26;;;;;;;15.70;4.63;;;6.20;1.00;;;;;;5052934;28;20175;-70
2023/12/20 06:35:52;;;;;;;11.33;3.90;;;6.20;1.00;;;;;;5052792;28;20248;-71
2023/12/20 06:38:18;;;;;;;14.83;4.60;;;6.30;1.00;;;;;;5052343;28;20488;-69
2023/12/20 06:40:44;;;;;;;15.23;4.87;;;6.20;1.00;;;;;;5052771;28;20203;-70
2023/12/20 06:43:10;;;;;;;17.57;3.93;;;6.20;1.00;;;;;;5052216;28;20406;-72
2023/12/20 06:45:36;;;;;;;15.13;4.30;;;6.20;1.00;;;;;;5051108;28;20225;-72
2023/12/20 06:48:02;;;;;;;27.03;4.13;;;6.30;1.00;;;;;;5051944;28;20199;-72
2023/12/20 06:50:27;;;;;;;9.43;3.70;;;6.40;1.00;;;;;;5052671;28;20185;-70
2023/12/20 06:52:53;;;;;;;15.13;4.50;;;6.40;1.00;;;;;;5059326;28;20770;-68
2023/12/20 06:55:19;;;;;;;13.70;5.50;;;6.40;1.00;;;;;;5070614;28;20225;-69
2023/12/20 06:57:44;;;;;;;23.70;4.80;;;6.50;1.00;;;;;;5057946;28;20207;-69
2023/12/20 07:00:11;;;;;;;9.27;4.07;;;6.40;1.00;;;;;;5051917;28;20206;-67
2023/12/20 07:02:37;;;;;;;13.53;3.67;;;6.30;1.00;;;;;;5053808;28;20179;-67
2023/12/20 07:05:04;;;;;;;16.63;4.00;;;6.20;1.00;;;;;;5044685;28;20422;-69
2023/12/20 07:07:30;;;;;;;15.83;3.80;;;6.20;1.00;;;;;;5054359;28;20551;-68
2023/12/20 07:09:55;;;;;;;15.13;5.20;;;6.20;1.00;;;;;;5058577;28;20448;-70
2023/12/20 07:12:24;;;;;;;7.20;3.10;;;6.20;1.00;;;;;;5052769;28;20186;-66
2023/12/20 07:14:49;;;;;;;13.43;4.73;;;6.20;1.00;;;;;;5039436;28;20420;-67
2023/12/20 07:17:15;;;;;;;19.30;4.30;;;6.20;1.00;;;;;;5056008;28;20448;-69
2023/12/20 07:19:41;;;;;;;17.30;4.97;;;6.20;1.00;;;;;;5056105;28;20244;-70
2023/12/20 07:22:07;;;;;;;10.80;3.50;;;6.20;1.00;;;;;;5071624;28;20170;-67
2023/12/20 07:24:33;;;;;;;13.87;4.23;;;6.20;1.00;;;;;;5050477;28;20918;-68
2023/12/20 07:27:02;;;;;;;19.67;5.40;;;6.10;1.00;;;;;;5056612;28;20186;-67
2023/12/20 07:29:28;;;;;;;9.40;4.63;;;6.10;1.00;;;;;;5048529;28;20417;-68
2023/12/20 07:31:55;;;;;;;14.43;4.67;;;6.00;1.00;;;;;;5054722;28;20437;-70
2023/12/20 07:34:21;;;;;;;12.60;5.50;;;6.00;1.00;;;;;;5055642;28;20463;-68
2023/12/20 07:36:47;;;;;;;26.90;5.00;;;6.00;1.00;;;;;;5069824;28;20249;-69
2023/12/20 07:39:13;;;;;;;10.47;4.20;;;6.10;1.00;;;;;;5057398;28;20405;-68
2023/12/20 07:41:39;;;;;;;10.90;3.60;;;6.10;1.00;;;;;;5055326;28;20821;-71
2023/12/20 07:44:05;;;;;;;14.97;3.60;;;6.20;1.00;;;;;;5055288;28;20488;-69
2023/12/20 07:46:30;;;;;;;9.80;3.70;;;6.20;1.00;;;;;;5063413;28;20222;-68
2023/12/20 07:48:56;;;;;;;12.83;4.37;;;6.20;1.00;;;;;;5057009;28;20208;-68
2023/12/20 07:51:22;;;;;;;16.67;4.93;;;6.20;1.00;;;;;;5066154;28;20189;-67
2023/12/20 07:53:47;;;;;;;15.17;4.00;;;6.20;1.00;;;;;;5057405;28;20179;-66
2023/12/20 07:56:15;;;;;;;25.37;4.63;;;6.20;1.00;;;;;;5062583;28;20188;-69
2023/12/20 07:58:40;;;;;;;6.33;3.70;;;6.20;1.00;;;;;;5067010;28;20194;-69
2023/12/20 08:01:06;;;;;;;13.97;3.73;;;6.20;1.00;;;;;;5043878;28;20453;-66
2023/12/20 08:03:32;;;;;;;15.43;4.23;;;6.20;1.00;;;;;;5050374;28;20199;-68
2023/12/20 08:05:59;;;;;;;8.83;4.10;;;6.20;1.00;;;;;;5050617;28;20436;-72
2023/12/20 08:08:25;;;;;;;16.50;4.50;;;6.20;1.00;;;;;;5054896;28;20199;-68
2023/12/20 08:10:50;;;;;;;9.80;4.57;;;6.20;1.00;;;;;;5053670;28;20940;-73
2023/12/20 08:13:16;;;;;;;10.77;3.80;;;6.20;1.00;;;;;;5074645;28;20257;-66
2023/12/20 08:15:42;;;;;;;11.27;2.73;;;6.20;1.00;;;;;;5058713;28;20360;-66
2023/12/20 08:18:07;;;;;;;11.67;4.40;;;6.10;1.00;;;;;;5060247;28;20272;-65
2023/12/20 08:20:33;;;;;;;7.37;2.63;;;6.10;1.00;;;;;;5048787;28;20201;-66
2023/12/20 08:22:59;;;;;;;8.50;2.97;;;6.10;1.00;;;;;;5059681;28;20249;-66
2023/12/20 08:25:24;;;;;;;4.30;2.67;;;6.10;1.00;;;;;;5041894;28;20188;-73
2023/12/20 08:27:50;;;;;;;5.90;3.40;;;6.00;1.00;;;;;;5048107;28;20205;-65
2023/12/20 08:30:20;;;;;;;4.13;2.67;;;6.00;1.00;;;;;;5055150;28;20188;-66
2023/12/20 08:32:46;;;;;;;4.80;2.80;;;6.00;1.00;;;;;;5044200;28;20214;-67
2023/12/20 08:35:11;;;;;;;5.00;2.73;;;6.00;1.00;;;;;;5063309;28;20432;-68
2023/12/20 08:37:37;;;;;;;8.93;3.27;;;6.00;1.00;;;;;;5055086;28;20559;-65
2023/12/20 08:40:03;;;;;;;3.20;2.60;;;6.00;1.00;;;;;;5053659;28;20217;-70
2023/12/20 08:42:31;;;;;;;12.13;3.37;;;6.00;1.00;;;;;;5054568;28;20209;-66
2023/12/20 08:44:58;;;;;;;3.17;2.33;;;6.00;1.00;;;;;;5066659;28;20904;-67
2023/12/20 08:47:24;;;;;;;3.97;2.10;;;5.90;1.00;;;;;;5054090;28;20434;-69
2023/12/20 08:49:50;;;;;;;5.97;3.03;;;5.80;1.00;;;;;;5069607;28;20522;-67
2023/12/20 08:52:16;;;;;;;3.67;2.10;;;5.80;1.00;;;;;;5055253;28;21063;-67
2023/12/20 08:54:41;;;;;;;5.83;3.23;;;5.70;1.00;;;;;;5060842;28;20210;-66
2023/12/20 08:57:07;;;;;;;6.23;2.20;;;5.70;1.00;;;;;;5053134;28;20206;-67
2023/12/20 08:59:33;;;;;;;2.27;2.10;;;5.60;1.00;;;;;;5072921;28;20190;-68
2023/12/20 09:01:59;;;;;;;3.47;2.10;;;5.50;1.00;;;;;;5066157;28;20185;-66
2023/12/20 09:04:25;;;;;;;2.60;2.00;;;5.40;1.00;;;;;;5064268;28;20431;-66
2023/12/20 09:06:51;;;;;;;4.57;2.30;;;5.40;1.00;;;;;;5057427;28;20179;-66
2023/12/20 09:09:16;;;;;;;6.30;4.00;;;5.30;1.00;;;;;;5065337;28;20492;-66
2023/12/20 09:11:42;;;;;;;2.30;1.70;;;5.40;1.00;;;;;;5054762;28;20174;-68
2023/12/20 09:14:08;;;;;;;4.47;2.00;;;5.40;1.00;;;;;;5054012;28;20186;-66
2023/12/20 09:16:35;;;;;;;2.17;2.00;;;5.30;1.00;;;;;;5058975;28;20174;-66
2023/12/20 09:19:00;;;;;;;2.10;1.90;;;5.30;1.00;;;;;;5052977;28;20497;-66
2023/12/20 09:21:26;;;;;;;3.77;2.00;;;5.20;1.00;;;;;;5053561;28;20460;-66
2023/12/20 09:23:51;;;;;;;3.90;2.00;;;5.30;1.00;;;;;;5050635;28;20186;-66
2023/12/20 09:26:17;;;;;;;2.37;2.10;;;5.30;1.00;;;;;;5052374;28;20187;-66
2023/12/20 09:28:44;;;;;;;2.03;1.60;;;5.20;1.00;;;;;;5047699;28;20206;-67
2023/12/20 09:31:10;;;;;;;6.77;2.20;;;5.10;1.00;;;;;;5073752;28;20172;-65
2023/12/20 09:33:36;;;;;;;3.10;1.90;;;5.10;1.00;;;;;;5062104;28;20441;-66
2023/12/20 09:36:01;;;;;;;1.60;1.50;;;5.20;1.00;;;;;;5052874;28;20197;-68
2023/12/20 09:38:27;;;;;;;2.23;1.77;;;5.10;1.00;;;;;;5057382;28;20281;-66
2023/12/20 09:40:55;;;;;;;7.13;2.00;;;5.10;1.00;;;;;;5033256;28;20197;-66
2023/12/20 09:43:23;;;;;;;2.60;2.23;;;5.10;1.00;;;;;;5047432;28;20182;-66
2023/12/20 09:45:53;;;;;;;3.97;2.30;;;5.10;1.00;;;;;;5044657;28;20499;-67
2023/12/20 09:48:20;;;;;;;1.93;1.67;;;5.20;1.00;;;;;;5038595;28;20623;-68
2023/12/20 09:50:46;;;;;;;8.00;1.63;;;5.20;1.00;;;;;;5072241;28;20521;-67
2023/12/20 09:53:15;;;;;;;12.20;2.77;;;5.10;1.00;;;;;;5049869;28;20430;-66
2023/12/20 09:55:41;;;;;;;4.60;2.20;;;5.10;1.00;;;;;;5050291;28;20444;-72
2023/12/20 09:58:08;;;;;;;9.67;2.30;;;5.10;1.00;;;;;;5056868;28;20484;-67
2023/12/20 10:00:35;;;;;;;2.30;2.03;;;5.10;1.00;;;;;;5063841;28;20471;-66
2023/12/20 10:03:01;;;;;;;10.23;3.00;;;5.10;1.00;;;;;;5055422;28;20497;-66
2023/12/20 10:05:31;;;;;;;7.00;2.23;;;5.10;1.00;;;;;;5051875;28;20437;-66
2023/12/20 10:07:58;;;;;;;2.67;2.47;;;5.10;1.00;;;;;;5063709;28;20452;-67
2023/12/20 10:10:25;;;;;;;13.33;2.03;;;5.20;1.00;;;;;;5051208;28;20461;-66
2023/12/20 10:13:08;;;;;;;3.87;1.70;;;5.20;1.00;;;;;;5055708;28;20523;-66
2023/12/20 10:15:35;;;;;;;4.43;2.20;;;5.30;1.00;;;;;;5052271;28;20869;-67
2023/12/20 10:18:04;;;;;;;6.10;2.70;;;5.30;1.00;;;;;;5051505;28;20858;-67
2023/12/20 10:20:31;;;;;;;3.00;2.37;;;5.40;1.00;;;;;;5052927;28;20547;-69
2023/12/20 10:22:58;;;;;;;5.70;3.30;;;5.40;1.00;;;;;;5052192;28;20472;-70
2023/12/20 10:25:24;;;;;;;9.03;3.03;;;5.40;1.00;;;;;;5048842;28;20452;-74
2023/12/20 10:28:07;;;;;;;11.10;3.03;;;5.60;1.00;;;;;;5050808;28;20444;-66
2023/12/20 10:30:33;;;;;;;11.57;2.87;;;5.80;1.00;;;;;;5061415;28;20431;-66
2023/12/20 10:32:59;;;;;;;8.13;3.13;;;5.80;1.00;;;;;;5056419;28;20838;-66
2023/12/20 10:35:24;;;;;;;2.60;2.37;;;5.70;1.00;;;;;;5064355;28;20186;-66
2023/12/20 10:37:55;;;;;;;7.60;2.20;;;5.60;1.00;;;;;;5047743;28;20206;-68
2023/12/20 10:40:21;;;;;;;8.13;2.67;;;5.60;1.00;;;;;;5071640;28;20208;-66
2023/12/20 10:42:47;;;;;;;17.27;3.00;;;5.50;1.00;;;;;;5072308;28;20432;-65
2023/12/20 10:45:13;;;;;;;3.10;1.90;;;5.40;1.00;;;;;;5061879;28;20439;-65
2023/12/20 10:47:40;;;;;;;3.17;1.83;;;5.50;1.00;;;;;;5056532;28;20440;-65
2023/12/20 10:50:07;;;;;;;8.73;2.50;;;5.50;1.00;;;;;;5054798;28;20192;-73
2023/12/20 10:52:35;;;;;;;10.37;3.40;;;5.50;1.00;;;;;;5056859;28;20431;-67
2023/12/20 10:55:01;;;;;;;8.33;3.30;;;5.60;1.00;;;;;;5056630;28;20434;-67
2023/12/20 10:57:28;;;;;;;5.27;3.13;;;5.70;1.00;;;;;;5071573;28;20442;-66
2023/12/20 10:59:54;;;;;;;11.23;3.17;;;5.70;1.00;;;;;;5035096;28;20694;-68
2023/12/20 11:02:21;;;;;;;3.67;2.97;;;5.80;1.00;;;;;;5036459;28;20397;-67
2023/12/20 11:05:02;;;;;;;15.63;3.27;;;5.70;1.00;;;;;;5042973;28;20464;-69
2023/12/20 11:07:35;;;;;;;8.63;2.87;;;5.70;99.90;;;;;;5054609;28;20460;-66
2023/12/20 11:10:16;;;;;;;11.53;2.77;;;5.60;99.90;;;;;;5056608;28;20408;-69
2023/12/20 11:12:51;;;;;;;11.00;2.50;;;5.60;99.90;;;;;;5055171;28;20417;-69
2023/12/20 11:15:17;;;;;;;10.07;4.60;;;5.50;99.90;;;;;;5054618;28;20421;-66
2023/12/20 11:17:46;;;;;;;4.00;2.40;;;5.50;99.90;;;;;;5054534;28;20476;-67
2023/12/20 11:20:12;;;;;;;3.60;2.60;;;5.40;99.90;;;;;;5055865;28;20464;-66
2023/12/20 11:22:41;;;;;;;2.93;2.00;;;5.40;99.90;;;;;;5056292;28;20893;-68
2023/12/20 11:25:10;;;;;;;8.30;2.70;;;5.50;99.90;;;;;;5059886;28;20696;-77
2023/12/20 11:27:40;;;;;;;6.47;2.50;;;5.70;99.90;;;;;;5050724;28;20453;-69
2023/12/20 11:30:08;;;;;;;8.20;2.43;;;5.90;99.90;;;;;;5065900;28;20452;-71
2023/12/20 11:32:35;;;;;;;5.17;2.33;;;5.90;99.90;;;;;;5041135;28;20487;-67
2023/12/20 11:35:18;;;;;;;5.03;2.37;;;6.00;99.90;;;;;;5050476;28;20904;-66
2023/12/20 11:37:46;;;;;;;6.60;1.90;;;5.90;99.90;;;;;;5060447;28;20478;-67
2023/12/20 11:40:15;;;;;;;5.43;2.23;;;6.00;99.90;;;;;;5054510;28;20548;-68
2023/12/20 11:42:50;;;;;;;3.33;2.30;;;6.20;99.90;;;;;;5055058;28;20424;-69
2023/12/20 11:45:21;;;;;;;10.00;3.20;;;6.00;99.90;;;;;;5053820;28;20436;-67
2023/12/20 11:47:53;;;;;;;8.20;2.97;;;6.00;99.90;;;;;;5054413;28;20455;-67
2023/12/20 11:50:21;;;;;;;7.30;2.60;;;5.90;99.90;;;;;;5054865;28;20416;-65
2023/12/20 11:52:47;;;;;;;7.83;5.10;;;5.80;99.90;;;;;;5053451;28;20991;-65
2023/12/20 11:55:13;;;;;;;6.80;3.07;;;5.80;99.90;;;;;;5054395;28;20410;-65
2023/12/20 11:57:39;;;;;;;11.93;3.40;;;5.80;99.90;;;;;;5053288;28;20510;-67
2023/12/20 12:00:06;;;;;;;7.53;3.93;;;5.80;99.90;;;;;;5054947;28;20886;-70
2023/12/20 12:02:32;;;;;;;10.27;3.50;;;5.90;99.90;;;;;;5055196;28;20173;-69
2023/12/20 12:04:59;;;;;;;10.07;3.77;;;5.90;99.90;;;;;;5060370;28;20424;-66
2023/12/20 12:07:25;;;;;;;11.87;3.20;;;6.00;99.90;;;;;;5063365;28;20857;-71
2023/12/20 12:09:51;;;;;;;11.20;3.10;;;6.10;99.90;;;;;;5069423;28;20449;-69
2023/12/20 12:12:19;;;;;;;9.80;2.90;;;6.10;99.90;;;;;;5063003;28;20929;-67
2023/12/20 12:14:45;;;;;;;12.17;3.60;;;6.00;99.90;;;;;;5063512;28;20438;-66
2023/12/20 12:17:14;;;;;;;15.77;4.17;;;6.10;99.90;;;;;;5058887;28;20460;-66
2023/12/20 12:19:41;;;;;;;7.97;3.33;;;6.10;99.90;;;;;;5052322;28;22104;-68
2023/12/20 12:22:16;;;;;;;17.63;3.83;;;6.20;99.90;;;;;;5065168;28;20430;-67
2023/12/20 12:24:45;;;;;;;8.13;3.60;;;6.30;99.90;;;;;;5054625;28;20455;-71
2023/12/20 12:27:12;;;;;;;11.50;6.23;;;6.40;99.90;;;;;;5053323;28;20543;-67
2023/12/20 12:29:38;;;;;;;10.40;3.23;;;6.50;99.90;;;;;;5051292;28;20440;-67
2023/12/20 12:32:09;;;;;;;12.00;3.80;;;6.60;99.90;;;;;;5054888;28;20408;-69
2023/12/20 12:34:35;;;;;;;15.70;3.93;;;6.80;99.90;;;;;;5049781;28;20523;-68
2023/12/20 12:37:01;;;;;;;10.87;2.83;;;6.90;99.90;;;;;;5056128;28;20423;-68
2023/12/20 12:39:27;;;;;;;5.13;4.33;;;6.50;99.90;;;;;;5053627;28;20408;-69
2023/12/20 12:41:53;;;;;;;6.00;4.03;;;6.20;99.90;;;;;;5053281;28;20519;-67
2023/12/20 12:44:20;;;;;;;13.83;4.43;;;6.00;99.90;;;;;;5050697;28;20198;-67
2023/12/20 12:46:46;;;;;;;4.60;2.43;;;5.80;99.90;;;;;;5056892;28;20493;-69
2023/12/20 12:49:13;;;;;;;5.77;3.90;;;5.80;99.90;;;;;;5044276;28;20461;-67
2023/12/20 12:51:38;;;;;;;11.93;3.37;;;5.80;99.90;;;;;;5056603;28;20525;-69
2023/12/20 12:54:04;;;;;;;8.13;4.33;;;5.60;99.90;;;;;;5053448;28;20533;-68
2023/12/20 12:56:30;;;;;;;7.27;3.57;;;5.50;99.90;;;;;;5053452;28;20202;-68